Time;durP1;ratioP1;P1;durP2;ratioP2;P2;SDS_P1;SDS_P2;PMS_P1;PMS_P2;Temp;Humidity;BMP_temperature;BMP_pressure;BME280_temperature;BME280_humidity;BME280_pressure;Samples;Min_cycle;Max_cycle;Signal;HPM_P1;HPM_P2
2023/01/26 00:01:43;;;;;;;19.70;8.05;;;;;;;1.58;100.00;101426.34;5003778;28;20145;-75
2023/01/26 00:04:09;;;;;;;21.70;7.88;;;;;;;1.65;100.00;101419.69;5003531;28;20660;-75
2023/01/26 00:06:34;;;;;;;21.38;8.38;;;;;;;1.75;100.00;101419.28;5006230;28;20647;-75
2023/01/26 00:09:00;;;;;;;20.35;7.63;;;;;;;1.79;100.00;101413.38;5003717;28;20057;-75
2023/01/26 00:11:27;;;;;;;24.52;9.55;;;;;;;1.82;100.00;101415.25;5000229;28;20034;-75
2023/01/26 00:13:54;;;;;;;23.65;9.57;;;;;;;1.75;100.00;101414.94;5003799;28;20103;-75
2023/01/26 00:16:19;;;;;;;23.05;9.52;;;;;;;1.78;100.00;101411.59;4999432;28;20034;-75
2023/01/26 00:18:45;;;;;;;20.67;7.97;;;;;;;1.88;100.00;101408.56;5011966;28;20542;-75
2023/01/26 00:21:14;;;;;;;19.83;7.57;;;;;;;1.92;100.00;101396.59;5002508;28;20037;-75
2023/01/26 00:23:39;;;;;;;20.08;6.90;;;;;;;1.93;100.00;101394.03;5000770;28;20480;-75
2023/01/26 00:26:06;;;;;;;19.85;8.57;;;;;;;1.87;100.00;101388.56;5001933;28;20088;-75
2023/01/26 00:28:31;;;;;;;17.25;7.43;;;;;;;1.92;100.00;101383.56;5003412;28;20041;-75
2023/01/26 00:31:12;;;;;;;20.15;7.88;;;;;;;2.03;100.00;101384.91;5000990;28;20049;-75
2023/01/26 00:33:37;;;;;;;19.98;8.00;;;;;;;2.07;100.00;101373.81;5000463;28;20026;-75
2023/01/26 00:36:03;;;;;;;20.50;7.93;;;;;;;2.05;100.00;101367.63;5008312;28;20030;-75
2023/01/26 00:38:29;;;;;;;19.98;8.60;;;;;;;1.99;100.00;101356.94;5003443;28;20038;-75
2023/01/26 00:40:55;;;;;;;18.50;7.82;;;;;;;1.92;100.00;101357.53;5003523;28;20045;-75
2023/01/26 00:43:20;;;;;;;19.52;7.78;;;;;;;1.95;100.00;101357.66;4999593;28;20120;-75
2023/01/26 00:45:46;;;;;;;23.63;9.52;;;;;;;1.82;100.00;101356.25;5001370;28;20480;-75
2023/01/26 00:48:11;;;;;;;20.92;8.02;;;;;;;1.78;100.00;101351.72;5005776;28;20500;-75
2023/01/26 00:50:37;;;;;;;19.80;7.50;;;;;;;1.78;100.00;101351.72;4999585;28;20042;-75
2023/01/26 00:53:02;;;;;;;24.58;8.98;;;;;;;1.77;100.00;101347.38;5003367;28;20101;-75
2023/01/26 00:55:31;;;;;;;25.23;9.32;;;;;;;1.80;100.00;101354.41;5000941;28;20041;-75
2023/01/26 00:58:02;;;;;;;25.10;9.68;;;;;;;1.84;100.00;101356.34;5002995;28;20124;-75
2023/01/26 01:00:28;;;;;;;24.50;8.43;;;;;;;1.80;100.00;101357.91;5001324;28;20038;-75
2023/01/26 01:02:55;;;;;;;24.15;10.18;;;;;;;1.77;100.00;101354.28;5001436;28;20409;-75
2023/01/26 01:05:26;;;;;;;21.65;7.82;;;;;;;1.72;100.00;101360.16;4999260;28;20087;-75
2023/01/26 01:07:51;;;;;;;23.02;7.60;;;;;;;1.75;100.00;101352.47;5002331;28;20045;-75
2023/01/26 01:10:17;;;;;;;25.35;9.65;;;;;;;1.77;100.00;101355.16;5003026;28;20038;-75
2023/01/26 01:12:43;;;;;;;18.73;7.93;;;;;;;1.83;100.00;101350.22;5001957;28;20062;-75
2023/01/26 01:15:08;;;;;;;21.92;8.98;;;;;;;1.73;100.00;101351.56;5000075;28;20092;-75
2023/01/26 01:17:35;;;;;;;22.90;9.05;;;;;;;1.70;100.00;101350.53;5006270;28;20519;-75
2023/01/26 01:20:04;;;;;;;20.50;8.20;;;;;;;1.74;100.00;101350.72;5009533;28;20124;-75
2023/01/26 01:22:30;;;;;;;23.05;8.00;;;;;;;1.78;100.00;101349.13;4999762;28;20034;-75
2023/01/26 01:24:55;;;;;;;22.70;9.18;;;;;;;1.95;100.00;101349.84;5001175;28;20137;-75
2023/01/26 01:27:20;;;;;;;22.42;8.48;;;;;;;2.08;100.00;101346.94;4999172;28;20046;-75
2023/01/26 01:29:46;;;;;;;27.83;10.20;;;;;;;2.02;100.00;101340.56;5001601;28;20129;-75
2023/01/26 01:32:11;;;;;;;21.67;7.90;;;;;;;2.17;100.00;101336.00;5003764;28;20091;-75
2023/01/26 01:34:37;;;;;;;21.50;8.13;;;;;;;2.14;100.00;101336.75;5003593;28;20030;-75
2023/01/26 01:37:02;;;;;;;22.67;8.65;;;;;;;2.08;100.00;101331.31;5005033;28;20083;-75
2023/01/26 01:39:27;;;;;;;25.02;9.07;;;;;;;2.14;100.00;101330.66;5012874;28;20044;-75
2023/01/26 01:41:52;;;;;;;20.05;8.48;;;;;;;2.21;100.00;101337.03;5005634;28;20125;-75
2023/01/26 01:44:23;;;;;;;22.58;9.07;;;;;;;2.34;100.00;101327.16;5002967;28;20033;-75
2023/01/26 01:46:53;;;;;;;24.65;8.75;;;;;;;2.19;100.00;101321.31;5013364;28;20033;-75
2023/01/26 01:49:27;;;;;;;26.40;9.07;;;;;;;2.14;100.00;101323.72;5009456;28;20413;-75
2023/01/26 01:52:00;;;;;;;21.88;9.95;;;;;;;2.27;100.00;101326.84;5012967;28;20030;-75
2023/01/26 01:54:33;;;;;;;21.60;9.10;;;;;;;2.27;100.00;101316.44;4986029;28;20060;-75
2023/01/26 01:57:04;;;;;;;23.98;10.05;;;;;;;2.30;100.00;101316.53;5003634;28;20030;-75
2023/01/26 01:59:31;;;;;;;20.75;8.23;;;;;;;2.28;100.00;101320.78;5004869;28;20034;-76
2023/01/26 02:01:57;;;;;;;22.45;9.15;;;;;;;2.18;100.00;101312.63;5004346;28;20552;-76
2023/01/26 02:04:23;;;;;;;24.95;9.48;;;;;;;2.17;100.00;101318.69;5002662;28;20038;-75
2023/01/26 02:06:52;;;;;;;26.70;10.23;;;;;;;2.13;100.00;101311.56;5004426;28;20041;-75
2023/01/26 02:12:10;;;;;;;22.88;9.63;;;;;;;2.33;100.00;101308.84;5020671;28;20034;-75
2023/01/26 02:14:36;;;;;;;27.75;11.23;;;;;;;2.31;100.00;101313.13;5002437;28;20073;-75
2023/01/26 02:17:01;;;;;;;18.38;8.23;;;;;;;2.41;100.00;101297.00;5006345;28;20065;-76
2023/01/26 02:19:40;;;;;;;21.70;8.23;;;;;;;2.51;100.00;101296.53;5004404;28;20032;-75
2023/01/26 02:22:39;;;;;;;24.73;8.63;;;;;;;2.36;100.00;101290.75;5006810;28;20026;-76
2023/01/26 02:25:27;;;;;;;24.80;9.10;;;;;;;2.25;100.00;101292.03;5008378;28;20088;-75
2023/01/26 02:27:52;;;;;;;23.17;9.18;;;;;;;2.32;100.00;101279.31;5009161;28;20038;-75
2023/01/26 02:30:19;;;;;;;20.35;8.88;;;;;;;2.42;100.00;101276.22;5011012;28;20558;-75
2023/01/26 02:32:45;;;;;;;21.85;9.70;;;;;;;2.56;100.00;101268.06;5001998;28;20058;-75
2023/01/26 02:35:10;;;;;;;22.20;8.52;;;;;;;2.59;100.00;101268.16;5002756;28;20072;-75
2023/01/26 02:37:36;;;;;;;21.75;7.90;;;;;;;2.50;100.00;101265.22;5001058;28;20513;-75
2023/01/26 02:40:37;;;;;;;21.85;8.57;;;;;;;2.32;100.00;101268.00;5002990;28;20575;-75
2023/01/26 02:43:03;;;;;;;26.77;10.15;;;;;;;2.32;100.00;101270.59;4994386;28;20065;-75
2023/01/26 02:45:31;;;;;;;28.05;11.20;;;;;;;2.31;100.00;101267.13;4999535;28;20056;-75
2023/01/26 02:47:58;;;;;;;25.20;12.07;;;;;;;2.28;100.00;101261.81;5008290;28;20396;-75
2023/01/26 02:50:24;;;;;;;28.95;11.48;;;;;;;2.23;100.00;101263.34;4986641;28;20084;-75
2023/01/26 02:52:49;;;;;;;23.42;10.38;;;;;;;2.26;100.00;101265.19;5002224;28;20521;-75
2023/01/26 02:55:21;;;;;;;23.60;10.30;;;;;;;2.24;100.00;101266.81;5002274;28;20518;-75
2023/01/26 02:57:47;;;;;;;25.08;11.18;;;;;;;2.17;100.00;101258.78;5002994;28;20146;-75
2023/01/26 03:00:18;;;;;;;25.42;10.43;;;;;;;2.12;100.00;101259.41;5010247;28;20088;-75
2023/01/26 03:02:46;;;;;;;23.70;8.93;;;;;;;2.06;100.00;101244.41;5003855;28;20034;-75
2023/01/26 03:05:11;;;;;;;24.58;9.40;;;;;;;1.98;100.00;101245.84;5001712;28;20084;-75
2023/01/26 03:07:36;;;;;;;23.38;8.68;;;;;;;2.06;100.00;101244.41;5002495;28;20069;-75
2023/01/26 03:10:03;;;;;;;21.08;9.07;;;;;;;2.05;100.00;101239.19;5004650;28;20030;-75
2023/01/26 03:12:29;;;;;;;22.98;9.98;;;;;;;2.14;100.00;101242.13;5004620;28;20030;-75
2023/01/26 03:17:39;;;;;;;27.45;9.63;;;;;;;2.06;100.00;101241.81;5007605;28;20559;-76
2023/01/26 03:28:21;;;;;;;28.65;9.70;;;;;;;2.18;100.00;101244.91;5003370;28;20084;-75
2023/01/26 03:30:49;;;;;;;29.33;11.25;;;;;;;2.16;100.00;101241.34;4999872;28;20445;-75
2023/01/26 03:33:16;;;;;;;24.73;10.05;;;;;;;2.13;100.00;101243.84;5006348;28;20513;-75
2023/01/26 03:35:42;;;;;;;30.25;12.20;;;;;;;2.05;100.00;101233.97;5006427;28;20113;-75
2023/01/26 03:38:08;;;;;;;25.00;9.90;;;;;;;2.12;100.00;101226.47;5003244;28;20054;-75
2023/01/26 03:57:05;;;;;;;25.77;9.77;;;;;;;2.05;100.00;101221.81;5002139;28;20079;-75
2023/01/26 03:59:38;;;;;;;25.15;9.80;;;;;;;1.99;100.00;101218.97;5001335;28;20025;-75
2023/01/26 04:10:25;;;;;;;29.40;11.35;;;;;;;1.95;100.00;101212.75;5016373;28;20125;-75
2023/01/26 04:23:53;;;;;;;26.85;10.63;;;;;;;1.88;100.00;101194.22;5002023;28;20065;-76
2023/01/26 04:26:19;;;;;;;23.63;8.73;;;;;;;1.95;100.00;101197.13;5017562;28;20136;-76
2023/01/26 04:28:45;;;;;;;24.98;10.35;;;;;;;1.97;100.00;101197.22;5010042;28;20410;-76
2023/01/26 04:31:10;;;;;;;22.35;9.38;;;;;;;1.93;100.00;101190.97;4998576;28;20026;-76
2023/01/26 04:33:37;;;;;;;27.98;9.93;;;;;;;1.86;100.00;101190.66;5002193;28;20374;-76
2023/01/26 04:36:07;;;;;;;24.38;10.13;;;;;;;1.83;100.00;101193.16;4997436;28;20086;-76
2023/01/26 04:38:35;;;;;;;18.83;8.27;;;;;;;1.92;100.00;101199.63;5001361;28;20033;-76
2023/01/26 04:41:01;;;;;;;23.63;9.95;;;;;;;1.93;100.00;101195.31;4999521;28;20069;-76
2023/01/26 04:43:28;;;;;;;25.35;10.00;;;;;;;1.91;100.00;101194.34;5000839;28;20053;-76
2023/01/26 04:46:03;;;;;;;23.35;8.65;;;;;;;1.95;100.00;101194.53;5002687;28;20513;-76
2023/01/26 04:48:29;;;;;;;23.38;10.23;;;;;;;1.92;100.00;101201.34;5005738;28;20113;-76
2023/01/26 04:50:59;;;;;;;19.75;9.07;;;;;;;1.92;100.00;101202.22;4999434;28;20062;-76
2023/01/26 04:53:25;;;;;;;23.38;9.05;;;;;;;1.87;100.00;101208.97;5002287;28;20041;-77
2023/01/26 04:55:51;;;;;;;18.55;7.57;;;;;;;1.80;100.00;101213.88;5002703;28;20050;-76
2023/01/26 04:58:18;;;;;;;22.90;9.10;;;;;;;1.72;100.00;101209.22;5008159;28;20034;-76
2023/01/26 05:00:44;;;;;;;22.17;9.60;;;;;;;1.72;100.00;101211.84;5001606;28;20034;-76
2023/01/26 05:03:09;;;;;;;25.50;9.73;;;;;;;1.72;100.00;101200.53;4999053;28;20129;-76
2023/01/26 05:05:36;;;;;;;22.77;9.57;;;;;;;1.68;100.00;101202.13;4987524;28;20045;-76
2023/01/26 05:08:03;;;;;;;21.15;9.15;;;;;;;1.63;100.00;101195.88;5008974;28;20489;-76
2023/01/26 05:10:31;;;;;;;23.08;10.05;;;;;;;1.55;100.00;101199.88;5012012;28;20044;-77
2023/01/26 05:13:23;;;;;;;26.60;9.73;;;;;;;1.46;100.00;101200.34;5005434;28;20524;-77
2023/01/26 05:16:15;;;;;;;24.65;10.10;;;;;;;1.42;100.00;101200.19;5008603;28;20068;-77
2023/01/26 05:18:59;;;;;;;28.13;8.32;;;;;;;1.47;100.00;101198.66;5005577;28;20691;-77
2023/01/26 05:21:42;;;;;;;26.70;9.65;;;;;;;1.47;100.00;101203.88;5012209;28;20493;-76
2023/01/26 05:24:10;;;;;;;24.40;10.85;;;;;;;1.49;100.00;101191.78;5005845;28;20037;-77
2023/01/26 05:27:19;;;;;;;21.58;8.93;;;;;;;1.60;100.00;101200.94;5008872;28;20030;-76
2023/01/26 05:29:37;;;;;;;23.10;9.48;;;;;;;1.66;100.00;101200.31;5003078;28;20030;-77
2023/01/26 05:32:03;;;;;;;26.10;11.57;;;;;;;1.65;100.00;101202.03;5006208;28;20093;-77
2023/01/26 05:34:29;;;;;;;24.35;9.27;;;;;;;1.58;100.00;101200.00;5005214;28;20113;-76
2023/01/26 05:36:55;;;;;;;25.88;10.88;;;;;;;1.58;100.00;101197.38;5004331;28;20113;-76
2023/01/26 05:41:56;;;;;;;26.15;10.75;;;;;;;1.61;100.00;101191.41;5020741;28;20046;-72
2023/01/26 05:44:38;;;;;;;20.67;9.45;;;;;;;1.63;100.00;101194.97;5007637;28;20026;-72
2023/01/26 05:47:09;;;;;;;24.50;9.70;;;;;;;1.57;100.00;101182.59;5018401;28;20053;-72
2023/01/26 05:49:38;;;;;;;28.00;10.88;;;;;;;1.52;100.00;101186.75;5026105;28;20488;-73
2023/01/26 05:52:14;;;;;;;25.08;10.48;;;;;;;1.38;100.00;101188.75;5006549;28;20632;-72
2023/01/26 05:54:40;;;;;;;32.05;10.70;;;;;;;1.36;100.00;101194.72;5006197;28;20037;-72
2023/01/26 05:57:06;;;;;;;24.40;10.48;;;;;;;1.34;100.00;101191.16;5008149;28;20544;-72
2023/01/26 05:59:35;;;;;;;32.08;12.57;;;;;;;1.29;100.00;101184.06;5005928;28;20092;-72
2023/01/26 06:02:02;;;;;;;29.23;13.18;;;;;;;1.26;100.00;101190.88;5012458;28;20112;-72
2023/01/26 06:04:27;;;;;;;24.15;12.20;;;;;;;1.29;100.00;101196.19;5011412;28;20465;-73
2023/01/26 06:06:58;;;;;;;23.83;10.05;;;;;;;1.20;100.00;101196.66;5002846;28;20049;-72
2023/01/26 06:09:28;;;;;;;25.08;11.88;;;;;;;1.15;100.00;101195.56;5004155;28;20081;-72
2023/01/26 06:12:16;;;;;;;32.95;12.43;;;;;;;1.20;100.00;101196.66;4999829;28;20034;-72
2023/01/26 06:14:58;;;;;;;32.90;14.25;;;;;;;1.25;100.00;101202.06;5001473;28;20092;-72
2023/01/26 06:17:31;;;;;;;31.67;12.63;;;;;;;1.23;100.00;101204.63;5001049;28;20029;-72
2023/01/26 06:20:00;;;;;;;25.10;11.98;;;;;;;1.23;100.00;101208.91;5005589;28;20096;-72
2023/01/26 06:22:25;;;;;;;32.85;14.00;;;;;;;1.28;100.00;101208.31;5003306;28;20496;-72
2023/01/26 06:24:51;;;;;;;30.13;12.25;;;;;;;1.33;100.00;101207.59;5002172;28;20516;-72
2023/01/26 06:27:17;;;;;;;28.88;13.13;;;;;;;1.16;100.00;101214.69;5002298;28;20084;-72
2023/01/26 06:29:45;;;;;;;31.17;12.13;;;;;;;1.10;100.00;101210.09;5008442;28;20042;-72
2023/01/26 06:32:12;;;;;;;33.35;13.27;;;;;;;1.12;100.00;101208.47;5005290;28;20114;-72
2023/01/26 06:34:37;;;;;;;31.90;13.07;;;;;;;0.95;100.00;101210.34;5006240;28;20496;-72
2023/01/26 06:37:03;;;;;;;35.58;14.27;;;;;;;0.98;100.00;101212.19;5006123;28;20036;-72
2023/01/26 06:39:33;;;;;;;32.33;12.82;;;;;;;1.08;100.00;101215.25;5003425;28;20117;-72
2023/01/26 06:41:59;;;;;;;34.38;13.02;;;;;;;1.17;100.00;101209.53;5000925;28;20069;-71
2023/01/26 06:44:25;;;;;;;31.75;11.93;;;;;;;1.15;100.00;101216.38;5005079;28;20066;-71
2023/01/26 06:46:50;;;;;;;27.38;11.90;;;;;;;1.24;100.00;101211.59;5007429;28;20041;-72
2023/01/26 06:49:15;;;;;;;34.05;12.50;;;;;;;1.36;100.00;101216.41;5009460;28;20034;-71
2023/01/26 06:52:20;;;;;;;32.53;12.13;;;;;;;1.47;100.00;101209.06;5005181;28;20044;-72
2023/01/26 06:54:49;;;;;;;26.45;10.18;;;;;;;1.47;100.00;101209.06;5001384;28;20034;-71
2023/01/26 06:57:33;;;;;;;31.58;12.77;;;;;;;1.38;100.00;101203.47;5008491;28;20052;-72
2023/01/26 07:00:28;;;;;;;31.98;11.55;;;;;;;1.37;100.00;101202.59;4988917;28;20042;-72
2023/01/26 07:03:03;;;;;;;34.95;12.15;;;;;;;1.26;100.00;101203.88;5003477;28;20088;-72
2023/01/26 07:05:28;;;;;;;30.52;13.32;;;;;;;1.22;100.00;101201.94;5002502;28;20038;-72
2023/01/26 07:07:54;;;;;;;31.00;12.07;;;;;;;1.18;100.00;101205.22;5002935;28;20053;-72
2023/01/26 07:10:19;;;;;;;35.35;14.00;;;;;;;1.10;100.00;101202.28;5004631;28;20035;-71
2023/01/26 07:12:45;;;;;;;29.10;11.45;;;;;;;1.14;100.00;101212.00;5003257;28;20400;-71
2023/01/26 07:15:11;;;;;;;32.70;13.70;;;;;;;1.14;100.00;101204.22;5001173;28;20084;-71
2023/01/26 07:17:40;;;;;;;30.58;12.68;;;;;;;1.06;100.00;101208.19;5007140;28;20040;-71
2023/01/26 07:20:06;;;;;;;29.83;12.18;;;;;;;1.05;100.00;101193.44;5004330;28;20489;-72
2023/01/26 07:22:31;;;;;;;30.00;12.93;;;;;;;1.15;100.00;101195.56;5007931;28;20113;-72
2023/01/26 07:24:56;;;;;;;27.73;11.35;;;;;;;1.11;100.00;101196.28;5005139;28;20034;-71
2023/01/26 07:27:21;;;;;;;26.83;10.55;;;;;;;1.01;100.00;101208.00;5002884;28;20069;-71
2023/01/26 07:29:47;;;;;;;26.73;12.13;;;;;;;1.06;100.00;101197.81;5004058;28;20046;-71
2023/01/26 07:32:12;;;;;;;28.05;12.55;;;;;;;1.01;100.00;101197.59;5001103;28;20054;-71
2023/01/26 07:34:37;;;;;;;26.40;12.52;;;;;;;1.04;100.00;101197.72;5004062;28;20041;-71
2023/01/26 07:37:04;;;;;;;26.85;11.38;;;;;;;1.07;100.00;101191.78;5000328;28;20029;-71
2023/01/26 07:39:29;;;;;;;35.33;13.18;;;;;;;1.09;100.00;101195.34;5004201;28;20108;-72
2023/01/26 07:41:55;;;;;;;26.65;11.63;;;;;;;1.04;100.00;101194.25;5004406;28;20065;-71
2023/01/26 07:44:44;;;;;;;29.70;10.95;;;;;;;1.05;100.00;101201.25;5002404;28;20038;-71
2023/01/26 07:47:09;;;;;;;30.35;11.73;;;;;;;1.11;100.00;101196.28;5006074;28;20087;-72
2023/01/26 07:49:34;;;;;;;23.80;10.98;;;;;;;1.05;100.00;101199.53;5003717;28;20117;-72
2023/01/26 07:52:00;;;;;;;25.80;10.95;;;;;;;1.01;100.00;101194.13;5004817;28;20048;-72
2023/01/26 07:54:25;;;;;;;30.17;12.15;;;;;;;0.98;100.00;101191.41;5004431;28;20034;-72
2023/01/26 07:56:51;;;;;;;32.13;14.02;;;;;;;1.03;100.00;101195.97;4998851;28;20041;-72
2023/01/26 07:59:17;;;;;;;26.73;10.68;;;;;;;1.13;100.00;101189.47;5009255;28;20369;-72
2023/01/26 08:01:42;;;;;;;26.83;10.05;;;;;;;1.06;100.00;101195.19;5008102;28;20140;-72
2023/01/26 08:04:07;;;;;;;36.60;12.43;;;;;;;0.87;100.00;101203.94;5004289;28;20137;-71
2023/01/26 08:06:33;;;;;;;33.38;12.30;;;;;;;0.93;100.00;101193.78;4999331;28;20073;-72
2023/01/26 08:08:58;;;;;;;28.27;12.85;;;;;;;1.03;100.00;101195.97;5004947;28;20037;-72
2023/01/26 08:11:24;;;;;;;28.67;11.55;;;;;;;1.10;100.00;101197.09;5000016;28;20046;-72
2023/01/26 08:13:50;;;;;;;30.58;11.65;;;;;;;1.06;100.00;101188.28;5005491;28;20124;-72
2023/01/26 08:16:15;;;;;;;27.67;11.05;;;;;;;0.98;100.00;101194.88;4999813;28;20101;-72
2023/01/26 08:18:43;;;;;;;31.25;13.35;;;;;;;1.04;100.00;101202.94;5007683;28;20575;-72
2023/01/26 08:21:10;;;;;;;29.75;10.75;;;;;;;1.05;100.00;101190.84;5006676;28;20088;-71
2023/01/26 08:23:35;;;;;;;27.65;12.55;;;;;;;0.96;100.00;101193.03;5008334;28;20520;-71
2023/01/26 08:26:03;;;;;;;26.20;9.52;;;;;;;0.80;100.00;101199.28;5007075;28;20038;-72
2023/01/26 08:28:28;;;;;;;32.63;10.68;;;;;;;0.87;100.00;101189.22;5009818;28;20031;-72
2023/01/26 08:30:54;;;;;;;25.05;10.73;;;;;;;0.98;100.00;101191.41;5004367;28;20125;-72
2023/01/26 08:33:20;;;;;;;29.77;11.25;;;;;;;1.05;100.00;101193.44;5003008;28;20049;-72
2023/01/26 08:35:45;;;;;;;33.40;12.70;;;;;;;1.08;100.00;101197.06;5000867;28;20038;-72
2023/01/26 08:38:10;;;;;;;28.40;12.05;;;;;;;1.04;100.00;101207.25;5001685;28;20049;-72
2023/01/26 08:40:36;;;;;;;30.23;10.70;;;;;;;0.94;100.00;101205.06;5004926;28;20030;-72
2023/01/26 08:43:02;;;;;;;23.20;11.03;;;;;;;0.85;100.00;101206.44;5000092;28;20034;-72
2023/01/26 08:45:28;;;;;;;23.90;10.38;;;;;;;0.75;100.00;101203.38;5002681;28;20110;-72
2023/01/26 08:47:54;;;;;;;29.92;11.18;;;;;;;0.64;100.00;101200.31;5004716;28;20439;-72
2023/01/26 08:50:20;;;;;;;29.13;9.95;;;;;;;0.58;100.00;101200.03;5006228;28;20177;-71
2023/01/26 08:52:45;;;;;;;27.20;11.20;;;;;;;0.55;100.00;101205.06;5006819;28;20045;-71
2023/01/26 08:55:11;;;;;;;23.10;9.97;;;;;;;0.60;100.00;101209.69;5003393;28;20409;-72
2023/01/26 08:57:36;;;;;;;26.23;9.73;;;;;;;0.61;100.00;101206.25;5006513;28;20485;-72
2023/01/26 09:00:02;;;;;;;31.83;11.02;;;;;;;0.59;100.00;101204.41;5005619;28;20493;-72
2023/01/26 09:02:28;;;;;;;25.60;10.18;;;;;;;0.71;100.00;101214.44;5004161;28;20455;-71
2023/01/26 09:04:53;;;;;;;32.10;12.37;;;;;;;0.78;100.00;101213.91;5000214;28;20077;-71
2023/01/26 09:07:18;;;;;;;32.00;12.60;;;;;;;0.74;100.00;101218.09;5005987;28;20088;-71
2023/01/26 09:09:44;;;;;;;29.55;11.40;;;;;;;0.80;100.00;101217.47;5006458;28;20124;-71
2023/01/26 09:12:09;;;;;;;31.10;10.10;;;;;;;0.68;100.00;101216.91;5000020;28;20415;-71
2023/01/26 09:14:34;;;;;;;29.33;10.07;;;;;;;0.71;100.00;101224.84;5002863;28;20453;-72
2023/01/26 09:16:59;;;;;;;22.25;9.35;;;;;;;0.68;100.00;101222.97;5003416;28;20420;-71
2023/01/26 09:19:25;;;;;;;23.27;8.60;;;;;;;0.73;100.00;101234.47;5006624;28;20686;-72
2023/01/26 09:21:54;;;;;;;25.02;10.48;;;;;;;0.74;100.00;101230.19;4999424;28;20378;-71
2023/01/26 09:24:21;;;;;;;27.17;10.43;;;;;;;0.82;100.00;101226.22;4999696;28;20034;-71
2023/01/26 09:26:46;;;;;;;21.92;9.23;;;;;;;0.82;100.00;101227.09;5002330;28;20042;-71
2023/01/26 09:29:12;;;;;;;23.02;8.68;;;;;;;0.82;100.00;101224.50;5002905;28;20072;-71
2023/01/26 09:31:38;;;;;;;24.95;9.35;;;;;;;0.78;100.00;101219.97;4999971;28;20046;-72
2023/01/26 09:34:03;;;;;;;21.45;8.43;;;;;;;0.70;100.00;101220.47;5002054;28;20034;-71
2023/01/26 09:36:28;;;;;;;22.30;8.83;;;;;;;0.63;100.00;101219.31;4999517;28;20065;-71
2023/01/26 09:38:53;;;;;;;23.83;10.05;;;;;;;0.71;100.00;101224.84;5003043;28;20080;-72
2023/01/26 09:41:44;;;;;;;22.80;9.23;;;;;;;0.72;100.00;101224.91;5001424;28;20034;-72
2023/01/26 09:44:17;;;;;;;21.43;9.13;;;;;;;0.78;100.00;101225.19;5006580;28;20130;-71
2023/01/26 09:47:01;;;;;;;23.97;10.07;;;;;;;0.88;100.00;101216.09;5000743;28;20511;-72
2023/01/26 09:49:53;;;;;;;20.92;8.77;;;;;;;1.06;100.00;101211.69;5002558;28;20120;-72
2023/01/26 09:52:47;;;;;;;24.90;10.33;;;;;;;1.12;100.00;101210.16;5001713;28;20062;-71
2023/01/26 09:55:18;;;;;;;16.50;6.70;;;;;;;0.95;100.00;101225.06;5008105;28;20042;-71
2023/01/26 09:58:01;;;;;;;16.33;7.45;;;;;;;0.82;100.00;101227.09;5006785;28;20480;-71
2023/01/26 10:00:35;;;;;;;23.80;7.60;;;;;;;0.69;100.00;101235.16;5009708;28;20042;-72
2023/01/26 10:03:11;;;;;;;19.77;6.97;;;;;;;0.61;100.00;101237.41;5002127;28;20631;-72
2023/01/26 10:06:05;;;;;;;15.75;6.53;;;;;;;0.63;100.00;101221.91;5006624;28;20041;-72
2023/01/26 10:08:49;;;;;;;15.00;6.15;;;;;;;0.68;100.00;101216.91;5008741;28;20076;-71
2023/01/26 10:11:30;;;;;;;15.43;7.13;;;;;;;0.78;100.00;101214.78;5006710;28;20488;-72
2023/01/26 10:14:06;;;;;;;15.23;4.90;;;;;;;0.79;100.00;101207.91;5005386;28;20034;-72
2023/01/26 10:16:33;;;;;;;16.37;4.67;;;;;;;0.94;100.00;101203.34;5002744;28;20038;-72
2023/01/26 10:19:27;;;;;;;10.82;4.65;;;;;;;1.08;100.00;101206.56;5010581;28;20523;-71
2023/01/26 10:21:59;;;;;;;13.40;4.63;;;;;;;1.14;100.00;101199.03;5009519;28;20607;-71
2023/01/26 10:24:25;;;;;;;14.13;5.60;;;;;;;1.11;100.00;101204.09;5006125;28;20036;-71
2023/01/26 10:26:55;;;;;;;13.27;4.82;;;;;;;1.11;100.00;101204.09;5004289;28;20041;-72
2023/01/26 10:29:21;;;;;;;16.80;5.22;;;;;;;1.07;100.00;101208.28;5005532;28;20068;-72
2023/01/26 10:31:46;;;;;;;14.70;4.47;;;;;;;1.05;100.00;101211.63;5007839;28;20033;-72
2023/01/26 10:34:14;;;;;;;13.32;5.03;;;;;;;1.20;100.00;101206.19;5008971;28;20519;-71
2023/01/26 10:36:43;;;;;;;10.82;4.82;;;;;;;1.13;100.00;101204.13;5004702;28;20026;-72
2023/01/26 10:39:11;;;;;;;17.83;4.28;;;;;;;0.99;100.00;101194.03;5005780;28;20444;-71
2023/01/26 10:41:38;;;;;;;16.50;4.63;;;;;;;1.04;100.00;101194.25;5004557;28;20501;-72
2023/01/26 10:44:22;;;;;;;9.23;3.67;;;;;;;1.11;100.00;101193.69;5006298;28;20120;-72
2023/01/26 10:47:02;;;;;;;14.43;4.15;;;;;;;1.09;100.00;101196.22;5002193;28;20103;-72
2023/01/26 10:49:27;;;;;;;15.88;4.78;;;;;;;1.21;100.00;101198.47;5005625;28;20257;-71
2023/01/26 10:52:20;;;;;;;9.88;3.53;;;;;;;1.05;100.00;101199.53;5001814;28;20037;-71
2023/01/26 10:54:46;;;;;;;8.32;3.53;;;;;;;1.12;100.00;101192.84;5003779;28;20045;-71
2023/01/26 10:57:26;;;;;;;11.38;3.80;;;;;;;1.16;100.00;101191.28;5002994;28;20039;-72
2023/01/26 10:59:57;;;;;;;12.55;4.47;;;;;;;1.18;100.00;101187.94;5003101;28;20042;-72
2023/01/26 11:02:28;;;;;;;13.73;4.32;;;;;;;1.26;100.00;101189.16;5013964;28;20042;-72
2023/01/26 11:05:05;;;;;;;10.75;3.28;;;;;;;1.17;100.00;101188.75;5004581;28;20042;-72
2023/01/26 11:07:37;;;;;;;9.40;3.20;;;;;;;1.05;100.00;101189.13;5003774;28;20034;-72
2023/01/26 11:10:27;;;;;;;12.30;3.42;;;;;;;1.07;100.00;101183.97;5004053;28;20623;-71
2023/01/26 11:13:11;;;;;;;10.80;3.80;;;;;;;1.10;100.00;101171.09;5001304;28;20087;-72
2023/01/26 11:15:39;;;;;;;10.75;4.63;;;;;;;1.16;100.00;101176.56;5004262;28;20037;-73
2023/01/26 11:18:34;;;;;;;9.43;2.85;;;;;;;1.15;100.00;101174.78;5011697;28;20053;-72
2023/01/26 11:21:16;;;;;;;12.55;4.15;;;;;;;1.03;100.00;101169.97;5002732;28;20046;-71
2023/01/26 11:23:41;;;;;;;8.98;3.70;;;;;;;1.05;100.00;101164.84;4999931;28;20477;-71
2023/01/26 11:26:29;;;;;;;8.38;3.40;;;;;;;0.93;100.00;101162.59;5009375;28;20120;-71
2023/01/26 11:29:13;;;;;;;14.50;4.10;;;;;;;0.93;100.00;101154.81;5005048;28;20029;-72
2023/01/26 11:32:00;;;;;;;11.30;2.88;;;;;;;1.03;100.00;101148.28;5001154;28;20156;-71
2023/01/26 11:34:38;;;;;;;9.48;3.58;;;;;;;1.11;99.66;101149.50;5002882;28;20038;-71
2023/01/26 11:37:35;;;;;;;11.25;3.75;;;;;;;1.29;99.60;101142.47;5001439;28;20122;-71
2023/01/26 11:40:10;;;;;;;9.70;3.58;;;;;;;1.27;98.82;101140.63;5005585;28;20407;-71
2023/01/26 11:42:56;;;;;;;15.45;6.65;;;;;;;1.31;98.55;101145.13;5002588;28;20034;-71
2023/01/26 11:45:49;;;;;;;9.73;3.83;;;;;;;1.19;97.72;101142.91;5001725;28;20026;-72
2023/01/26 11:48:30;;;;;;;9.35;3.33;;;;;;;0.99;98.54;101147.25;5010831;28;20093;-72
2023/01/26 11:51:18;;;;;;;11.02;3.63;;;;;;;0.93;99.67;101147.00;5002460;28;20575;-72
2023/01/26 11:54:06;;;;;;;9.68;3.22;;;;;;;1.05;99.78;101147.53;5002668;28;20374;-72
2023/01/26 11:56:56;;;;;;;8.13;2.45;;;;;;;0.90;99.65;101153.78;5001912;28;20173;-71
2023/01/26 11:59:30;;;;;;;6.82;2.30;;;;;;;0.90;99.63;101140.81;5009694;28;20033;-70
2023/01/26 12:02:02;;;;;;;7.55;2.95;;;;;;;0.90;99.69;101141.69;5005305;28;20095;-70
2023/01/26 12:04:30;;;;;;;;;;;;;;;1.01;100.00;101145.63;5003571;28;20129;-71
2023/01/26 12:07:05;;;;;;;8.02;2.88;;;;;;;1.09;99.13;101140.75;4999488;28;19925;-70
2023/01/26 12:09:37;;;;;;;13.30;3.15;;;;;;;1.11;98.56;101135.63;5003531;28;20045;-71
2023/01/26 12:12:15;;;;;;;9.93;4.63;;;;;;;1.16;97.35;101126.28;5002372;28;20041;-71
2023/01/26 12:14:52;;;;;;;7.35;4.45;;;;;;;1.18;96.96;101130.72;5007910;28;20042;-70
2023/01/26 12:17:29;;;;;;;9.45;4.15;;;;;;;1.29;97.17;101115.56;5007894;28;20041;-71
2023/01/26 12:20:22;;;;;;;6.93;4.07;;;;;;;1.26;95.15;101115.44;5004762;28;20030;-70
2023/01/26 12:23:08;;;;;;;7.13;3.70;;;;;;;1.22;95.05;101116.13;5001571;28;20033;-71